createdAt,value
2018-08-25T00:50:21.278Z,7.50
2018-08-25T00:55:25.383Z,7.67
2018-08-25T02:32:31.914Z,5.90
2018-08-25T02:37:35.246Z,5.90
2018-08-25T02:42:39.345Z,6.23
2018-08-25T03:50:56.447Z,5.33
2018-08-25T03:55:59.777Z,5.27
2018-08-25T05:04:19.327Z,4.83
2018-08-25T05:09:23.098Z,5.30
2018-08-25T05:14:26.546Z,5.40
2018-08-25T05:19:29.873Z,4.97
2018-08-25T05:24:33.978Z,5.07
2018-08-25T05:29:37.313Z,4.97
2018-08-25T05:34:41.996Z,4.47
2018-08-25T05:39:45.336Z,5.50
2018-08-25T05:44:49.043Z,5.10
2018-08-25T05:49:52.372Z,4.77
2018-08-25T06:00:50.211Z,5.20
2018-08-25T06:05:53.540Z,5.20
2018-08-25T06:10:56.872Z,4.23
2018-08-25T06:16:20.552Z,4.80
2018-08-25T06:21:24.643Z,5.03
2018-08-25T06:26:27.977Z,4.80
2018-08-25T06:31:31.306Z,4.90
2018-08-25T06:36:39.440Z,4.53
2018-08-25T06:41:42.734Z,4.30
2018-08-25T06:46:46.088Z,4.47
2018-08-25T06:51:49.449Z,4.40
2018-08-25T06:56:53.629Z,4.43
2018-08-25T07:01:57.049Z,4.73
2018-08-25T07:07:01.111Z,4.63
2018-08-25T07:12:05.291Z,4.33
2018-08-25T07:17:08.641Z,3.90
2018-08-25T07:22:12.019Z,4.13
2018-08-25T07:27:15.592Z,4.10
2018-08-25T07:32:18.987Z,3.97
2018-08-25T07:37:22.451Z,4.17
2018-08-25T07:42:25.848Z,3.77
2018-08-25T07:47:29.325Z,3.80
2018-08-25T07:52:32.897Z,3.90
2018-08-25T07:57:36.340Z,3.90
2018-08-25T08:02:39.756Z,3.93
2018-08-25T08:07:43.088Z,3.77
2018-08-25T08:12:46.420Z,3.47
2018-08-25T08:17:49.870Z,3.50
2018-08-25T08:22:53.201Z,3.53
2018-08-25T08:27:56.532Z,3.40
2018-08-25T08:33:08.951Z,3.10
2018-08-25T08:38:13.050Z,3.27
2018-08-25T08:43:17.237Z,3.47
2018-08-25T08:48:20.622Z,3.70
2018-08-25T08:53:24.724Z,2.57
2018-08-25T08:58:28.581Z,3.07
2018-08-25T09:03:32.215Z,2.60
2018-08-25T09:08:35.770Z,2.53
2018-08-25T09:13:39.409Z,2.57
2018-08-25T09:18:43.032Z,2.37
2018-08-25T09:23:46.520Z,2.07
2018-08-25T09:28:50.141Z,2.57
2018-08-25T09:33:55.299Z,2.20
2018-08-25T09:38:59.014Z,2.10
2018-08-25T09:44:03.436Z,2.17
2018-08-25T09:49:07.066Z,2.53
2018-08-25T09:54:10.618Z,2.13
2018-08-25T09:59:14.151Z,2.50
2018-08-25T10:04:17.720Z,2.60
2018-08-25T10:09:21.287Z,2.27
2018-08-25T10:14:24.866Z,2.47
2018-08-25T10:19:28.423Z,2.53
2018-08-25T10:24:32.030Z,2.23
2018-08-25T10:29:36.369Z,2.00
2018-08-25T10:34:39.994Z,2.50
2018-08-25T10:39:43.592Z,2.40
2018-08-25T10:44:53.409Z,2.13
2018-08-25T10:49:57.097Z,2.80
2018-08-25T10:55:00.685Z,2.60
2018-08-25T11:00:04.361Z,2.10
2018-08-25T11:05:10.504Z,2.00
2018-08-25T11:10:14.735Z,2.20
2018-08-25T11:15:18.079Z,2.10
2018-08-25T11:20:22.212Z,2.97
2018-08-25T11:25:25.555Z,2.50
2018-08-25T11:30:28.883Z,2.70
2018-08-25T11:35:32.223Z,2.43
2018-08-25T11:40:35.828Z,2.77
2018-08-25T11:45:39.208Z,2.90
2018-08-25T11:50:42.932Z,3.20
2018-08-25T11:55:46.603Z,2.87
2018-08-25T12:00:49.924Z,3.07
2018-08-25T12:05:53.252Z,2.70
2018-08-25T12:10:57.350Z,3.13
2018-08-25T12:16:00.683Z,3.20
2018-08-25T12:21:04.788Z,2.60
2018-08-25T12:26:08.135Z,2.10
2018-08-25T12:31:12.238Z,3.10
2018-08-25T12:36:15.597Z,2.43
2018-08-25T12:41:18.958Z,2.60
2018-08-25T12:46:22.291Z,3.07
2018-08-25T12:51:25.638Z,2.70
2018-08-25T12:56:28.997Z,3.00
2018-08-25T13:01:32.359Z,2.50
2018-08-25T13:06:35.695Z,3.30
2018-08-25T13:11:39.021Z,2.83
2018-08-25T13:16:42.355Z,2.90
2018-08-25T13:21:45.730Z,2.57
2018-08-25T13:26:49.033Z,2.70
2018-08-25T13:31:52.560Z,3.13
2018-08-25T13:36:55.888Z,3.57
2018-08-25T13:41:59.226Z,3.60
2018-08-25T13:47:02.558Z,2.63
2018-08-25T13:52:06.675Z,2.73
2018-08-25T13:57:10.012Z,2.70
2018-08-25T14:02:13.371Z,2.60
2018-08-25T14:07:16.759Z,2.17
2018-08-25T14:12:20.260Z,2.30
2018-08-25T14:17:24.615Z,2.50
2018-08-25T14:22:28.043Z,2.20
2018-08-25T14:27:31.450Z,1.80
2018-08-25T14:32:34.949Z,1.90
2018-08-25T14:37:38.323Z,1.60
2018-08-25T14:42:42.454Z,1.97
2018-08-25T14:47:45.891Z,2.37
2018-08-25T14:52:49.223Z,1.97
2018-08-25T14:57:52.552Z,1.60
2018-08-25T15:02:55.887Z,1.73
2018-08-25T15:07:59.670Z,2.10
2018-08-25T15:13:02.959Z,1.93
2018-08-25T15:18:06.305Z,2.30
2018-08-25T15:23:11.486Z,1.80
2018-08-25T15:28:14.818Z,2.00
2018-08-25T15:33:18.151Z,1.70
2018-08-25T15:38:22.242Z,1.97
2018-08-25T15:43:25.574Z,2.13
2018-08-25T15:48:28.910Z,1.53
2018-08-25T15:53:33.011Z,1.97
2018-08-25T15:58:36.378Z,2.30
2018-08-25T16:03:39.727Z,2.00
2018-08-25T16:08:43.081Z,2.10
2018-08-25T16:13:47.191Z,1.90
2018-08-25T16:18:50.533Z,2.03
2018-08-25T16:23:54.637Z,2.10
2018-08-25T16:28:57.974Z,2.37
2018-08-25T16:34:01.320Z,2.10
2018-08-25T16:39:04.713Z,2.50
2018-08-25T16:44:08.132Z,2.40
2018-08-25T16:49:11.596Z,2.37
2018-08-25T16:54:14.954Z,2.40
2018-08-25T16:59:18.335Z,2.40
2018-08-25T17:04:22.444Z,2.40
2018-08-25T17:09:25.804Z,2.60
2018-08-25T17:14:29.140Z,2.53
2018-08-25T17:19:32.483Z,2.50
2018-08-25T17:24:35.822Z,2.20
2018-08-25T17:29:39.910Z,2.00
2018-08-25T17:34:45.406Z,2.43
2018-08-25T17:39:50.287Z,2.43
2018-08-25T17:44:53.636Z,1.97
2018-08-25T17:49:57.229Z,2.13
2018-08-25T17:55:00.833Z,2.10
2018-08-25T18:00:04.409Z,2.10
2018-08-25T18:05:07.847Z,2.30
2018-08-25T18:10:11.195Z,1.93
2018-08-25T18:15:14.528Z,2.23
2018-08-25T18:20:17.888Z,2.50
2018-08-25T18:25:21.373Z,2.40
2018-08-25T18:30:24.837Z,2.27
2018-08-25T18:35:28.108Z,1.93
2018-08-25T18:40:31.651Z,2.07
2018-08-25T18:45:35.088Z,1.80
2018-08-25T18:50:38.431Z,1.90
2018-08-25T18:55:41.762Z,1.70
2018-08-25T19:00:45.100Z,2.00
2018-08-25T19:05:56.645Z,1.97
2018-08-25T19:11:00.003Z,1.73
2018-08-25T19:16:04.112Z,2.23
2018-08-25T19:21:07.461Z,2.40
2018-08-25T19:26:29.316Z,2.45
2018-08-25T19:31:33.427Z,2.20
2018-08-25T19:36:36.781Z,2.10
2018-08-25T19:41:40.115Z,2.10
2018-08-25T19:47:15.609Z,2.43
2018-08-25T19:52:18.962Z,2.10
2018-08-25T19:57:22.310Z,2.20
2018-08-25T20:02:25.650Z,2.10
2018-08-25T20:07:28.986Z,1.93
2018-08-25T20:12:33.084Z,2.50
2018-08-25T20:17:36.408Z,2.47
2018-08-25T20:22:39.763Z,2.40
2018-08-25T20:27:43.107Z,2.10
2018-08-25T20:32:46.437Z,2.47
2018-08-25T20:37:49.763Z,2.73
2018-08-25T20:42:53.095Z,2.75
2018-08-25T20:47:56.431Z,2.47
2018-08-25T20:52:59.760Z,2.33
2018-08-25T20:58:03.102Z,2.50
2018-08-25T21:03:06.430Z,2.17
2018-08-25T21:08:09.759Z,1.85
2018-08-25T21:13:13.865Z,1.50
2018-08-25T21:18:17.214Z,1.53
2018-08-25T21:23:20.539Z,1.83
2018-08-25T21:28:23.862Z,1.70
2018-08-25T21:33:27.190Z,1.20
2018-08-25T21:38:30.527Z,3.20
2018-08-25T21:43:33.861Z,2.80
2018-08-25T21:48:37.192Z,1.50
2018-08-25T21:53:40.519Z,1.30
2018-08-25T21:58:43.852Z,1.45
2018-08-25T22:03:47.194Z,2.20
2018-08-25T22:08:50.527Z,1.60
2018-08-25T22:13:53.855Z,1.67
2018-08-25T22:18:57.178Z,1.77
2018-08-25T22:24:00.499Z,1.90
2018-08-25T22:29:03.829Z,2.10
2018-08-25T22:34:07.161Z,1.83
2018-08-25T22:39:10.516Z,1.77
2018-08-25T22:44:13.853Z,2.60
2018-08-25T22:49:17.180Z,2.20
2018-08-25T22:54:20.499Z,2.30
2018-08-25T22:59:23.829Z,2.67
2018-08-25T23:04:27.150Z,2.60
2018-08-25T23:09:30.475Z,2.00
2018-08-25T23:14:34.577Z,2.20
